createdAt,value
2019-05-17T00:00:37.503Z,38.60
2019-05-17T00:03:06.912Z,29.30
2019-05-17T00:05:37.359Z,28.45
2019-05-17T00:08:07.766Z,30.40
2019-05-17T00:10:37.542Z,30.48
2019-05-17T00:13:07.577Z,27.22
2019-05-17T00:15:37.107Z,31.70
2019-05-17T00:18:06.791Z,25.68
2019-05-17T00:20:37.547Z,27.15
2019-05-17T00:23:07.038Z,27.30
2019-05-17T00:25:36.939Z,28.20
2019-05-17T00:28:07.299Z,29.15
2019-05-17T00:30:37.210Z,24.95
2019-05-17T00:33:07.849Z,28.15
2019-05-17T00:35:37.586Z,28.83
2019-05-17T00:38:06.789Z,32.38
2019-05-17T00:40:36.597Z,31.80
2019-05-17T00:43:06.857Z,30.72
2019-05-17T00:45:37.658Z,33.38
2019-05-17T00:48:06.558Z,31.37
2019-05-17T00:50:37.768Z,29.50
2019-05-17T00:53:07.174Z,27.45
2019-05-17T00:55:36.443Z,25.62
2019-05-17T00:58:06.673Z,31.37
2019-05-17T01:00:37.655Z,30.45
2019-05-17T01:03:07.007Z,30.65
2019-05-17T01:05:36.979Z,34.45
2019-05-17T01:08:07.364Z,34.53
2019-05-17T01:10:36.885Z,32.65
2019-05-17T01:13:06.854Z,30.97
2019-05-17T01:15:37.002Z,33.80
2019-05-17T01:18:07.249Z,34.53
2019-05-17T01:20:37.147Z,35.38
2019-05-17T01:23:07.735Z,37.23
2019-05-17T01:25:37.003Z,38.90
2019-05-17T01:28:07.589Z,34.18
2019-05-17T01:30:37.462Z,33.58
2019-05-17T01:33:06.927Z,30.77
2019-05-17T01:35:37.472Z,35.30
2019-05-17T01:38:07.372Z,33.23
2019-05-17T01:40:37.253Z,36.55
2019-05-17T01:43:07.924Z,36.95
2019-05-17T01:45:36.792Z,34.30
2019-05-17T01:48:07.447Z,35.88
2019-05-17T01:50:37.459Z,35.75
2019-05-17T01:53:07.331Z,35.85
2019-05-17T01:55:37.522Z,32.20
2019-05-17T01:58:07.567Z,31.62
2019-05-17T02:00:37.665Z,29.57
2019-05-17T02:03:07.301Z,32.00
2019-05-17T02:05:37.311Z,27.48
2019-05-17T02:08:07.000Z,30.72
2019-05-17T02:10:37.687Z,32.63
2019-05-17T02:13:06.745Z,32.63
2019-05-17T02:15:37.764Z,32.23
2019-05-17T02:18:06.983Z,31.23
2019-05-17T02:20:37.209Z,32.28
2019-05-17T02:23:07.284Z,39.50
2019-05-17T02:25:36.901Z,37.98
2019-05-17T02:28:06.065Z,35.10
2019-05-17T02:30:35.010Z,34.70
2019-05-17T02:33:04.435Z,34.13
2019-05-17T02:35:34.011Z,33.80
2019-05-17T02:38:03.339Z,35.48
2019-05-17T02:40:34.047Z,42.05
2019-05-17T02:43:03.484Z,39.50
2019-05-17T02:45:33.159Z,33.98
2019-05-17T02:48:03.895Z,37.38
2019-05-17T02:50:33.430Z,35.05
2019-05-17T02:53:04.476Z,34.38
2019-05-17T02:55:32.712Z,38.92
2019-05-17T02:58:02.949Z,42.75
2019-05-17T03:00:33.783Z,39.38
2019-05-17T03:03:03.441Z,44.85
2019-05-17T03:05:33.936Z,38.75
2019-05-17T03:08:04.164Z,35.83
2019-05-17T03:10:33.845Z,36.55
2019-05-17T03:13:04.012Z,37.95
2019-05-17T03:15:33.133Z,44.42
2019-05-17T03:18:03.717Z,34.43
2019-05-17T03:20:32.998Z,33.05
2019-05-17T03:23:03.902Z,34.38
2019-05-17T03:25:33.503Z,35.25
2019-05-17T03:28:03.266Z,36.33
2019-05-17T03:30:36.406Z,34.08
2019-05-17T03:33:06.967Z,37.85
2019-05-17T03:35:37.315Z,31.95
2019-05-17T03:38:05.107Z,30.72
2019-05-17T03:41:01.065Z,35.45
2019-05-17T03:43:04.499Z,41.98
2019-05-17T03:45:34.235Z,33.20
2019-05-17T03:48:04.739Z,28.92
2019-05-17T03:50:33.977Z,32.85
2019-05-17T03:53:02.910Z,33.18
2019-05-17T03:55:33.198Z,33.08
2019-05-17T03:58:03.249Z,34.55
2019-05-17T04:00:35.274Z,32.42
2019-05-17T04:03:03.426Z,32.58
2019-05-17T04:05:33.537Z,29.90
2019-05-17T04:08:03.449Z,31.00
2019-05-17T04:10:33.706Z,31.27
2019-05-17T04:13:04.289Z,31.10
2019-05-17T04:15:33.340Z,30.43
2019-05-17T04:18:04.093Z,28.47
2019-05-17T04:20:33.682Z,35.08
2019-05-17T04:23:03.934Z,31.33
2019-05-17T04:25:33.678Z,27.65
2019-05-17T04:28:03.361Z,27.80
2019-05-17T04:30:32.910Z,27.62
2019-05-17T04:33:03.632Z,28.45
2019-05-17T04:35:32.922Z,28.60
2019-05-17T04:38:04.023Z,30.77
2019-05-17T04:40:34.078Z,26.93
2019-05-17T04:43:03.350Z,26.33
2019-05-17T04:45:33.588Z,26.57
2019-05-17T04:48:04.112Z,30.17
2019-05-17T04:50:34.078Z,25.12
2019-05-17T04:53:03.179Z,27.70
2019-05-17T04:55:34.111Z,27.30
2019-05-17T04:58:04.205Z,27.22
2019-05-17T05:00:33.950Z,26.15
2019-05-17T05:03:04.355Z,23.18
2019-05-17T05:05:33.620Z,26.12
2019-05-17T05:08:03.342Z,20.80
2019-05-17T05:10:33.835Z,20.32
2019-05-17T05:13:03.425Z,22.35
2019-05-17T05:15:44.126Z,21.68
2019-05-17T05:18:13.564Z,20.40
2019-05-17T05:20:43.544Z,17.73
2019-05-17T05:23:13.343Z,18.07
2019-05-17T05:25:42.991Z,19.52
2019-05-17T05:28:12.175Z,17.50
2019-05-17T05:30:42.202Z,17.57
2019-05-17T05:33:12.790Z,15.40
2019-05-17T05:35:42.556Z,20.08
2019-05-17T05:38:12.964Z,16.73
2019-05-17T05:40:42.589Z,17.00
2019-05-17T05:43:11.908Z,14.83
2019-05-17T05:45:41.652Z,17.37
2019-05-17T05:48:12.729Z,17.73
2019-05-17T05:50:43.248Z,18.77
2019-05-17T05:53:12.857Z,16.02
2019-05-17T05:55:42.754Z,20.15
2019-05-17T05:58:12.380Z,14.87
2019-05-17T06:00:42.810Z,18.32
2019-05-17T06:03:12.299Z,18.90
2019-05-17T06:05:42.350Z,18.27
2019-05-17T06:08:12.153Z,16.32
2019-05-17T06:10:42.531Z,17.73
2019-05-17T06:13:13.227Z,18.40
2019-05-17T06:15:43.021Z,18.67
2019-05-17T06:18:12.512Z,15.88
2019-05-17T06:20:41.925Z,17.35
2019-05-17T06:23:12.322Z,14.33
2019-05-17T06:25:43.629Z,17.98
2019-05-17T06:28:11.834Z,17.35
2019-05-17T06:30:42.954Z,14.45
2019-05-17T06:33:11.927Z,14.05
2019-05-17T06:35:42.389Z,16.10
2019-05-17T06:38:12.115Z,14.45
2019-05-17T06:40:41.976Z,15.50
2019-05-17T06:43:13.161Z,14.98
2019-05-17T06:45:42.096Z,14.55
2019-05-17T06:48:11.784Z,16.87
2019-05-17T06:50:42.963Z,17.17
2019-05-17T06:53:12.325Z,16.95
2019-05-17T06:55:42.486Z,16.37
2019-05-17T06:58:11.879Z,15.98
2019-05-17T07:00:40.790Z,17.20
2019-05-17T07:03:09.808Z,15.20
2019-05-17T07:05:40.465Z,15.13
2019-05-17T07:08:10.864Z,16.10
2019-05-17T07:10:41.446Z,15.05
2019-05-17T07:13:10.869Z,16.45
2019-05-17T07:15:47.500Z,16.00
2019-05-17T07:18:10.659Z,16.97
2019-05-17T07:20:40.648Z,14.25
2019-05-17T07:23:10.690Z,17.40
2019-05-17T07:25:39.995Z,16.48
2019-05-17T07:28:09.980Z,18.52
2019-05-17T07:30:39.970Z,20.02
2019-05-17T07:33:10.362Z,17.10
2019-05-17T07:35:39.653Z,17.27
2019-05-17T07:38:10.607Z,17.75
2019-05-17T07:40:39.845Z,17.15
2019-05-17T07:43:13.922Z,17.25
2019-05-17T07:45:40.452Z,17.73
2019-05-17T07:48:10.030Z,17.60
2019-05-17T07:50:39.861Z,17.50
2019-05-17T07:53:10.294Z,19.20
2019-05-17T07:55:40.041Z,17.55
2019-05-17T07:58:10.058Z,19.82
2019-05-17T08:00:40.146Z,21.12
2019-05-17T08:03:12.621Z,20.27
2019-05-17T08:05:40.394Z,20.60
2019-05-17T08:08:09.789Z,21.37
2019-05-17T08:10:41.369Z,19.40
2019-05-17T08:13:25.071Z,22.75
2019-05-17T08:15:40.648Z,20.32
2019-05-17T08:18:10.915Z,19.75
2019-05-17T08:20:40.318Z,17.32
2019-05-17T08:23:10.492Z,19.57
2019-05-17T08:25:51.882Z,16.25
2019-05-17T08:28:10.957Z,17.17
2019-05-17T08:30:41.035Z,18.60
2019-05-17T08:33:10.860Z,16.62
2019-05-17T08:35:40.207Z,16.93
2019-05-17T08:38:10.414Z,17.73
2019-05-17T08:40:40.394Z,16.40
2019-05-17T08:43:10.203Z,16.10
2019-05-17T08:45:40.580Z,16.05
2019-05-17T08:48:09.817Z,16.87
2019-05-17T08:50:40.244Z,16.65
2019-05-17T08:53:10.656Z,14.63
2019-05-17T08:55:40.785Z,15.35
2019-05-17T08:58:10.513Z,16.77
2019-05-17T09:00:40.592Z,15.83
2019-05-17T09:03:10.664Z,15.72
2019-05-17T09:05:41.674Z,16.42
2019-05-17T09:08:11.444Z,16.67
2019-05-17T09:10:40.932Z,14.93
2019-05-17T09:13:14.392Z,15.80
2019-05-17T09:15:40.805Z,17.77
2019-05-17T09:18:10.003Z,15.98
2019-05-17T09:20:40.577Z,18.52
2019-05-17T09:23:09.873Z,15.75
2019-05-17T09:25:39.693Z,15.95
2019-05-17T09:28:10.157Z,16.23
2019-05-17T09:30:40.584Z,17.45
2019-05-17T09:33:11.260Z,17.10
2019-05-17T09:35:41.000Z,16.40
2019-05-17T09:38:10.297Z,15.68
2019-05-17T09:40:40.333Z,15.03
2019-05-17T09:43:10.202Z,15.85
2019-05-17T09:45:40.354Z,14.80
2019-05-17T09:48:10.686Z,17.85
2019-05-17T09:50:40.054Z,15.93
2019-05-17T09:53:10.794Z,16.45
2019-05-17T09:55:39.941Z,16.87
2019-05-17T09:58:13.392Z,15.65
2019-05-17T10:00:42.222Z,16.27
2019-05-17T10:03:10.904Z,15.58
2019-05-17T10:05:40.573Z,16.12
2019-05-17T10:08:10.837Z,17.35
2019-05-17T10:10:40.477Z,17.20
2019-05-17T10:13:10.054Z,15.48
2019-05-17T10:15:41.613Z,14.68
2019-05-17T10:18:13.800Z,16.62
2019-05-17T10:20:43.762Z,16.52
2019-05-17T10:23:12.543Z,15.43
2019-05-17T10:25:42.032Z,17.00
2019-05-17T10:28:10.735Z,17.37
2019-05-17T10:30:42.850Z,14.00
2019-05-17T10:33:11.953Z,14.30
2019-05-17T10:35:40.991Z,14.30
2019-05-17T10:38:10.583Z,13.65
2019-05-17T10:40:40.804Z,14.68
2019-05-17T10:43:10.268Z,14.28
2019-05-17T10:45:40.176Z,14.83
2019-05-17T10:48:10.238Z,14.07
2019-05-17T10:50:40.628Z,14.90
2019-05-17T10:53:10.283Z,14.18
2019-05-17T10:55:39.779Z,14.20
2019-05-17T10:58:10.123Z,13.65
2019-05-17T11:00:41.258Z,12.88
2019-05-17T11:03:10.475Z,14.50
2019-05-17T11:05:40.213Z,13.43
2019-05-17T11:08:10.815Z,14.73
2019-05-17T11:10:50.047Z,13.70
2019-05-17T11:13:40.766Z,11.83
2019-05-17T11:16:09.472Z,12.03
2019-05-17T11:18:42.368Z,12.82
2019-05-17T11:21:11.847Z,13.93
2019-05-17T11:23:43.693Z,13.50
2019-05-17T11:26:22.398Z,14.65
2019-05-17T11:28:53.522Z,14.28
2019-05-17T11:31:29.594Z,14.03
2019-05-17T11:34:00.660Z,13.93
2019-05-17T11:36:32.755Z,13.48
2019-05-17T11:39:02.836Z,13.10
2019-05-17T11:41:31.821Z,13.93
2019-05-17T11:44:03.207Z,13.70
2019-05-17T11:46:36.272Z,14.23
2019-05-17T11:49:02.801Z,13.13
2019-05-17T11:51:44.386Z,14.85
2019-05-17T11:54:15.378Z,14.05
2019-05-17T11:56:49.374Z,16.42
2019-05-17T11:59:18.636Z,15.03
2019-05-17T12:01:47.863Z,15.43
2019-05-17T12:04:21.709Z,15.08
2019-05-17T12:06:50.880Z,14.45
2019-05-17T12:09:19.963Z,13.53
2019-05-17T12:11:51.512Z,13.48
2019-05-17T12:14:20.531Z,14.50
2019-05-17T12:16:50.347Z,13.50
2019-05-17T12:19:20.340Z,13.62
2019-05-17T12:21:49.035Z,12.68
2019-05-17T12:24:17.719Z,13.65
2019-05-17T12:26:47.587Z,14.58
2019-05-17T12:29:16.403Z,15.95
2019-05-17T12:31:45.393Z,16.57
2019-05-17T12:34:14.727Z,14.93
2019-05-17T12:36:43.757Z,13.03
2019-05-17T12:39:12.857Z,15.40
2019-05-17T12:41:41.595Z,14.95
2019-05-17T12:44:10.265Z,14.10
2019-05-17T12:46:38.982Z,14.63
2019-05-17T12:49:07.742Z,13.28
2019-05-17T12:51:36.488Z,14.13
2019-05-17T12:54:05.334Z,13.40
2019-05-17T12:56:34.094Z,15.68
2019-05-17T12:59:02.873Z,14.93
2019-05-17T13:01:31.985Z,13.98
2019-05-17T13:04:00.664Z,14.30
2019-05-17T13:06:29.324Z,13.28
2019-05-17T13:08:58.014Z,13.65
2019-05-17T13:11:26.705Z,14.85
2019-05-17T13:13:55.603Z,12.95
2019-05-17T13:16:25.081Z,13.22
2019-05-17T13:18:53.825Z,13.85
2019-05-17T13:21:22.491Z,12.93
2019-05-17T13:23:52.628Z,14.38
2019-05-17T13:26:21.312Z,14.43
2019-05-17T13:28:50.022Z,13.62
2019-05-17T13:31:18.691Z,13.58
2019-05-17T13:33:47.386Z,14.00
2019-05-17T13:36:16.091Z,14.85
2019-05-17T13:38:44.817Z,15.25
2019-05-17T13:41:14.632Z,15.00
2019-05-17T13:43:43.330Z,12.98
2019-05-17T13:46:12.050Z,12.78
2019-05-17T13:48:40.896Z,12.43
2019-05-17T13:51:09.635Z,12.85
2019-05-17T13:53:38.225Z,12.68
2019-05-17T13:56:06.911Z,14.05
2019-05-17T13:58:36.035Z,13.62
2019-05-17T14:01:04.720Z,13.50
2019-05-17T14:03:33.401Z,13.05
2019-05-17T14:06:02.089Z,13.80
2019-05-17T14:08:30.764Z,14.13
2019-05-17T14:10:59.425Z,13.78
2019-05-17T14:13:28.192Z,13.00
2019-05-17T14:15:56.857Z,11.78
2019-05-17T14:18:25.525Z,13.32
2019-05-17T14:20:54.295Z,13.35
2019-05-17T14:23:23.020Z,11.93
2019-05-17T14:25:51.703Z,13.20
2019-05-17T14:28:20.368Z,11.18
2019-05-17T14:30:49.076Z,11.15
2019-05-17T14:33:17.759Z,13.22
2019-05-17T14:35:46.735Z,14.07
2019-05-17T14:38:15.486Z,13.40
2019-05-17T14:41:05.827Z,11.53
2019-05-17T14:43:14.693Z,12.53
2019-05-17T14:45:43.380Z,11.75
2019-05-17T14:48:12.399Z,13.32
2019-05-17T14:50:41.111Z,13.20
2019-05-17T14:53:09.759Z,11.55
2019-05-17T14:55:38.435Z,13.10
2019-05-17T14:58:07.116Z,13.18
2019-05-17T15:00:35.824Z,12.78
2019-05-17T15:03:07.453Z,13.18
2019-05-17T15:05:34.988Z,12.95
2019-05-17T15:08:03.705Z,11.90
2019-05-17T15:10:32.392Z,12.23
2019-05-17T15:13:01.747Z,14.85
2019-05-17T15:15:30.560Z,14.15
2019-05-17T15:17:59.242Z,12.85
2019-05-17T15:20:27.944Z,12.88
2019-05-17T15:22:57.036Z,11.10
2019-05-17T15:25:25.795Z,13.03
2019-05-17T15:27:54.477Z,10.93
2019-05-17T15:30:23.168Z,12.23
2019-05-17T15:32:51.866Z,11.50
2019-05-17T15:35:20.549Z,11.28
2019-05-17T15:37:49.548Z,14.05
2019-05-17T15:40:18.978Z,12.78
2019-05-17T15:42:47.706Z,13.05
2019-05-17T15:45:16.528Z,12.70
2019-05-17T15:47:45.211Z,13.32
2019-05-17T15:50:14.163Z,14.95
2019-05-17T15:52:42.823Z,15.53
2019-05-17T15:55:13.272Z,13.35
2019-05-17T15:57:41.942Z,14.55
2019-05-17T16:00:11.359Z,13.72
2019-05-17T16:02:40.065Z,13.93
2019-05-17T16:05:09.176Z,11.88
2019-05-17T16:07:37.881Z,14.00
2019-05-17T16:10:08.158Z,16.15
2019-05-17T16:12:36.913Z,15.48
2019-05-17T16:15:06.203Z,15.05
2019-05-17T16:17:35.234Z,13.78
2019-05-17T16:20:04.218Z,14.13
2019-05-17T16:22:32.898Z,16.48
2019-05-17T16:25:01.578Z,16.52
2019-05-17T16:27:30.339Z,14.10
2019-05-17T16:29:59.370Z,14.68
2019-05-17T16:32:28.098Z,12.23
2019-05-17T16:34:56.759Z,13.95
2019-05-17T16:37:25.446Z,14.38
2019-05-17T16:39:54.140Z,13.38
2019-05-17T16:42:22.827Z,13.85
2019-05-17T16:44:51.559Z,13.18
2019-05-17T16:47:20.312Z,15.48
2019-05-17T16:49:49.105Z,14.55
2019-05-17T16:52:17.775Z,14.75
2019-05-17T16:54:46.522Z,14.63
2019-05-17T16:57:15.206Z,13.85
2019-05-17T16:59:43.925Z,15.40
2019-05-17T17:02:12.741Z,14.45
2019-05-17T17:04:41.488Z,15.70
2019-05-17T17:07:10.273Z,14.65
2019-05-17T17:09:38.962Z,14.07
2019-05-17T17:12:07.654Z,15.03
2019-05-17T17:14:36.315Z,15.00
2019-05-17T17:17:10.841Z,13.68
2019-05-17T17:19:35.496Z,12.78
2019-05-17T17:22:04.162Z,13.32
2019-05-17T17:24:32.858Z,12.53
2019-05-17T17:27:01.533Z,13.38
2019-05-17T17:29:30.216Z,12.40
2019-05-17T17:31:58.907Z,11.57
2019-05-17T17:34:27.593Z,13.38
2019-05-17T17:36:56.268Z,12.30
2019-05-17T17:39:24.972Z,13.22
2019-05-17T17:41:53.933Z,13.18
2019-05-17T17:44:22.600Z,14.03
2019-05-17T17:46:51.315Z,13.03
2019-05-17T17:49:20.019Z,13.83
2019-05-17T17:51:48.700Z,13.18
2019-05-17T17:54:23.484Z,16.37
2019-05-17T17:56:59.200Z,15.48
2019-05-17T17:59:31.848Z,14.00
2019-05-17T18:02:01.748Z,13.30
2019-05-17T18:04:52.242Z,14.73
2019-05-17T18:07:21.669Z,13.98
2019-05-17T18:09:52.916Z,13.90
2019-05-17T18:12:25.104Z,12.95
2019-05-17T18:14:58.235Z,13.30
2019-05-17T18:17:39.715Z,16.70
2019-05-17T18:20:11.353Z,14.18
2019-05-17T18:22:41.603Z,18.35
2019-05-17T18:25:15.429Z,15.75
2019-05-17T18:27:48.525Z,15.95
2019-05-17T18:30:20.366Z,15.80
2019-05-17T18:32:55.968Z,14.05
2019-05-17T18:35:26.433Z,14.35
2019-05-17T18:37:58.533Z,15.35
2019-05-17T18:40:33.931Z,15.30
2019-05-17T18:43:10.156Z,13.88
2019-05-17T18:45:50.363Z,14.13
2019-05-17T18:48:20.329Z,14.38
2019-05-17T18:50:53.771Z,14.47
2019-05-17T18:53:34.787Z,16.05
2019-05-17T18:56:08.201Z,16.07
2019-05-17T18:58:50.198Z,17.07
2019-05-17T19:01:22.375Z,15.93
2019-05-17T19:03:56.902Z,16.30
2019-05-17T19:06:28.933Z,18.82
2019-05-17T19:08:59.369Z,16.55
2019-05-17T19:11:51.609Z,15.85
2019-05-17T19:14:24.321Z,18.73
2019-05-17T19:16:58.306Z,19.75
2019-05-17T19:19:28.636Z,18.67
2019-05-17T19:22:21.338Z,20.43
2019-05-17T19:24:56.343Z,19.92
2019-05-17T19:27:31.971Z,21.82
2019-05-17T19:30:05.293Z,18.65
2019-05-17T19:35:12.710Z,21.10
2019-05-17T19:37:47.928Z,20.43
2019-05-17T19:40:19.892Z,18.73
2019-05-17T19:42:52.109Z,21.45
2019-05-17T19:45:21.123Z,22.17
2019-05-17T19:47:49.798Z,23.75
2019-05-17T19:50:19.029Z,24.52
2019-05-17T19:52:47.739Z,23.27
2019-05-17T19:55:16.544Z,22.77
2019-05-17T19:57:45.244Z,19.10
2019-05-17T20:00:14.757Z,22.07
2019-05-17T20:02:43.448Z,19.60
2019-05-17T20:05:13.057Z,20.43
2019-05-17T20:07:41.739Z,21.87
2019-05-17T20:10:12.376Z,18.77
2019-05-17T20:12:41.074Z,26.25
2019-05-17T20:15:17.158Z,19.65
2019-05-17T20:17:41.149Z,19.25
2019-05-17T20:20:10.072Z,20.10
2019-05-17T20:22:38.742Z,22.05
2019-05-17T20:25:08.201Z,24.90
2019-05-17T20:27:36.858Z,20.25
2019-05-17T20:30:06.887Z,28.12
2019-05-17T20:32:35.549Z,26.05
2019-05-17T20:35:04.419Z,27.82
2019-05-17T20:37:33.132Z,25.72
2019-05-17T20:40:01.819Z,23.95
2019-05-17T20:42:30.768Z,23.73
2019-05-17T20:44:59.460Z,29.67
2019-05-17T20:47:28.148Z,27.95
2019-05-17T20:49:57.155Z,28.47
2019-05-17T20:52:26.185Z,31.10
2019-05-17T20:54:55.436Z,28.77
2019-05-17T20:57:24.148Z,27.15
2019-05-17T20:59:52.812Z,26.40
2019-05-17T21:02:21.491Z,25.37
2019-05-17T21:04:50.179Z,26.80
2019-05-17T21:07:18.866Z,27.20
2019-05-17T21:09:47.529Z,32.63
2019-05-17T21:12:16.234Z,29.07
2019-05-17T21:14:44.929Z,34.38
2019-05-17T21:17:13.587Z,26.42
2019-05-17T21:19:42.250Z,27.40
2019-05-17T21:22:10.932Z,26.30
2019-05-17T21:24:39.610Z,31.55
2019-05-17T21:27:08.289Z,31.05
2019-05-17T21:29:36.957Z,33.78
2019-05-17T21:32:05.648Z,33.18
2019-05-17T21:34:34.337Z,34.75
2019-05-17T21:37:03.033Z,31.93
2019-05-17T21:39:31.715Z,30.55
2019-05-17T21:42:00.385Z,104.58
2019-05-17T21:44:29.064Z,34.30
2019-05-17T21:47:04.627Z,42.20
2019-05-17T21:49:28.136Z,36.28
2019-05-17T21:51:56.819Z,37.93
2019-05-17T21:54:25.486Z,38.88
2019-05-17T21:56:54.244Z,38.70
2019-05-17T21:59:22.915Z,39.75
2019-05-17T22:01:52.236Z,36.28
2019-05-17T22:04:20.909Z,42.17
2019-05-17T22:06:49.582Z,39.40
2019-05-17T22:09:18.291Z,40.98
2019-05-17T22:11:49.295Z,33.90
2019-05-17T22:14:17.956Z,38.50
2019-05-17T22:16:46.640Z,36.10
2019-05-17T22:19:15.409Z,40.98
2019-05-17T22:21:44.110Z,37.48
2019-05-17T22:24:12.828Z,45.25
2019-05-17T22:26:41.507Z,45.90
2019-05-17T22:29:10.168Z,43.13
2019-05-17T22:31:39.149Z,46.23
2019-05-17T22:34:07.834Z,39.78
2019-05-17T22:36:36.632Z,35.03
2019-05-17T22:39:06.772Z,46.83
2019-05-17T22:41:35.738Z,32.73
2019-05-17T22:44:04.521Z,39.27
2019-05-17T22:46:36.056Z,49.70
2019-05-17T22:49:03.738Z,46.33
2019-05-17T22:51:32.420Z,44.93
2019-05-17T22:54:01.096Z,52.80
2019-05-17T22:56:29.774Z,52.40
2019-05-17T22:58:58.442Z,45.95
2019-05-17T23:01:27.133Z,53.68
2019-05-17T23:03:55.788Z,55.67
2019-05-17T23:06:24.491Z,51.63
2019-05-17T23:08:53.176Z,56.00
2019-05-17T23:11:21.859Z,55.63
2019-05-17T23:13:50.555Z,57.27
2019-05-17T23:16:19.244Z,59.80
2019-05-17T23:19:05.916Z,64.40
2019-05-17T23:21:34.599Z,60.50
2019-05-17T23:24:03.717Z,64.60
2019-05-17T23:26:32.773Z,73.12
2019-05-17T23:29:02.194Z,72.85
2019-05-17T23:31:30.884Z,70.03
2019-05-17T23:33:59.572Z,58.48
2019-05-17T23:36:28.334Z,65.35
2019-05-17T23:38:57.044Z,63.60
2019-05-17T23:41:25.786Z,49.80
2019-05-17T23:43:54.488Z,52.67
2019-05-17T23:46:23.160Z,57.58
2019-05-17T23:48:51.838Z,55.08
2019-05-17T23:51:20.895Z,47.25
2019-05-17T23:53:49.892Z,43.73
2019-05-17T23:56:18.827Z,43.83
2019-05-17T23:58:47.520Z,53.80
